sensor_id;sensor_type;location;lat;lon;timestamp;temperature;humidity
21387;DHT22;10854;45.922;6.716;2023-02-13T00:00:43;-2.70;99.90
21387;DHT22;10854;45.922;6.716;2023-02-13T00:04:05;-2.70;99.90
21387;DHT22;10854;45.922;6.716;2023-02-13T00:06:39;-2.80;99.90
21387;DHT22;10854;45.922;6.716;2023-02-13T00:09:35;-2.80;99.90
21387;DHT22;10854;45.922;6.716;2023-02-13T00:12:24;-2.80;99.90
21387;DHT22;10854;45.922;6.716;2023-02-13T00:14:53;-2.70;99.90
21387;DHT22;10854;45.922;6.716;2023-02-13T00:17:27;-2.80;99.90
21387;DHT22;10854;45.922;6.716;2023-02-13T00:19:59;-2.80;99.90
21387;DHT22;10854;45.922;6.716;2023-02-13T00:23:01;-2.80;99.90
21387;DHT22;10854;45.922;6.716;2023-02-13T00:25:30;-2.80;99.90
21387;DHT22;10854;45.922;6.716;2023-02-13T00:28:19;-2.80;99.90
21387;DHT22;10854;45.922;6.716;2023-02-13T00:31:40;-2.90;99.90
21387;DHT22;10854;45.922;6.716;2023-02-13T00:34:54;-2.90;99.90
21387;DHT22;10854;45.922;6.716;2023-02-13T00:37:52;-2.90;99.90
21387;DHT22;10854;45.922;6.716;2023-02-13T00:40:43;-2.90;99.90
21387;DHT22;10854;45.922;6.716;2023-02-13T00:43:18;-2.90;99.90
21387;DHT22;10854;45.922;6.716;2023-02-13T00:45:59;-2.90;99.90
21387;DHT22;10854;45.922;6.716;2023-02-13T00:48:40;-2.90;99.90
21387;DHT22;10854;45.922;6.716;2023-02-13T00:51:29;-2.90;99.90
21387;DHT22;10854;45.922;6.716;2023-02-13T00:54:01;-2.90;99.90
21387;DHT22;10854;45.922;6.716;2023-02-13T00:57:17;-2.90;99.90
21387;DHT22;10854;45.922;6.716;2023-02-13T01:00:22;-2.90;99.90
21387;DHT22;10854;45.922;6.716;2023-02-13T01:03:04;-2.90;99.90
21387;DHT22;10854;45.922;6.716;2023-02-13T01:05:56;-2.90;99.90
21387;DHT22;10854;45.922;6.716;2023-02-13T01:08:51;-2.90;99.90
21387;DHT22;10854;45.922;6.716;2023-02-13T01:11:25;-2.90;99.90
21387;DHT22;10854;45.922;6.716;2023-02-13T01:17:23;-2.90;99.90
21387;DHT22;10854;45.922;6.716;2023-02-13T01:20:09;-2.90;99.90
21387;DHT22;10854;45.922;6.716;2023-02-13T01:39:01;-3.10;99.90
21387;DHT22;10854;45.922;6.716;2023-02-13T01:41:32;-3.10;99.90
21387;DHT22;10854;45.922;6.716;2023-02-13T01:44:46;-3.10;99.90
21387;DHT22;10854;45.922;6.716;2023-02-13T01:48:02;-3.10;99.90
21387;DHT22;10854;45.922;6.716;2023-02-13T01:51:51;-3.10;99.90
21387;DHT22;10854;45.922;6.716;2023-02-13T01:54:51;-3.10;99.90
21387;DHT22;10854;45.922;6.716;2023-02-13T01:58:09;-3.10;99.90
21387;DHT22;10854;45.922;6.716;2023-02-13T02:01:17;-3.10;99.90
21387;DHT22;10854;45.922;6.716;2023-02-13T02:04:38;-3.10;99.90
21387;DHT22;10854;45.922;6.716;2023-02-13T02:08:08;-3.10;99.90
21387;DHT22;10854;45.922;6.716;2023-02-13T02:14:31;-3.20;99.90
21387;DHT22;10854;45.922;6.716;2023-02-13T02:17:34;-3.20;99.90
21387;DHT22;10854;45.922;6.716;2023-02-13T02:23:52;-3.40;99.90
21387;DHT22;10854;45.922;6.716;2023-02-13T02:27:04;-3.40;99.90
21387;DHT22;10854;45.922;6.716;2023-02-13T02:42:56;-3.50;99.90
21387;DHT22;10854;45.922;6.716;2023-02-13T02:45:52;-3.50;99.90
21387;DHT22;10854;45.922;6.716;2023-02-13T02:49:04;-3.50;99.90
21387;DHT22;10854;45.922;6.716;2023-02-13T02:58:40;-3.50;99.90
21387;DHT22;10854;45.922;6.716;2023-02-13T03:02:07;-3.50;99.90
21387;DHT22;10854;45.922;6.716;2023-02-13T03:05:57;-3.60;99.90
21387;DHT22;10854;45.922;6.716;2023-02-13T03:09:16;-3.50;99.90
21387;DHT22;10854;45.922;6.716;2023-02-13T03:13:11;-3.60;99.90
21387;DHT22;10854;45.922;6.716;2023-02-13T03:16:28;-3.60;99.90
21387;DHT22;10854;45.922;6.716;2023-02-13T03:19:53;-3.70;99.90
21387;DHT22;10854;45.922;6.716;2023-02-13T03:26:01;-3.70;99.90
21387;DHT22;10854;45.922;6.716;2023-02-13T03:29:10;-3.70;99.90
21387;DHT22;10854;45.922;6.716;2023-02-13T03:33:11;-3.70;99.90
21387;DHT22;10854;45.922;6.716;2023-02-13T03:36:18;-3.70;99.90
21387;DHT22;10854;45.922;6.716;2023-02-13T03:39:53;-3.70;99.90
21387;DHT22;10854;45.922;6.716;2023-02-13T03:43:13;-3.60;99.90
21387;DHT22;10854;45.922;6.716;2023-02-13T03:46:44;-3.60;99.90
21387;DHT22;10854;45.922;6.716;2023-02-13T03:49:57;-3.50;99.90
21387;DHT22;10854;45.922;6.716;2023-02-13T03:53:35;-3.50;99.90
21387;DHT22;10854;45.922;6.716;2023-02-13T03:56:52;-3.50;99.90
21387;DHT22;10854;45.922;6.716;2023-02-13T03:59:57;-3.50;99.90
21387;DHT22;10854;45.922;6.716;2023-02-13T04:02:56;-3.50;99.90
21387;DHT22;10854;45.922;6.716;2023-02-13T04:07:03;-3.50;99.90
21387;DHT22;10854;45.922;6.716;2023-02-13T04:09:24;-3.50;99.90
21387;DHT22;10854;45.922;6.716;2023-02-13T04:15:39;-3.50;99.90
21387;DHT22;10854;45.922;6.716;2023-02-13T04:18:39;-3.50;99.90
21387;DHT22;10854;45.922;6.716;2023-02-13T04:21:44;-3.50;99.90
21387;DHT22;10854;45.922;6.716;2023-02-13T04:24:47;-3.50;99.90
21387;DHT22;10854;45.922;6.716;2023-02-13T04:27:20;-3.50;99.90
21387;DHT22;10854;45.922;6.716;2023-02-13T04:29:50;-3.60;99.90
21387;DHT22;10854;45.922;6.716;2023-02-13T04:32:27;-3.50;99.90
21387;DHT22;10854;45.922;6.716;2023-02-13T04:35:29;-3.50;99.90
21387;DHT22;10854;45.922;6.716;2023-02-13T04:38:08;-3.50;99.90
21387;DHT22;10854;45.922;6.716;2023-02-13T04:40:44;-3.50;99.90
21387;DHT22;10854;45.922;6.716;2023-02-13T04:43:14;-3.50;99.90
21387;DHT22;10854;45.922;6.716;2023-02-13T04:46:08;-3.50;99.90
21387;DHT22;10854;45.922;6.716;2023-02-13T04:49:12;-3.50;99.90
21387;DHT22;10854;45.922;6.716;2023-02-13T04:51:43;-3.60;99.90
21387;DHT22;10854;45.922;6.716;2023-02-13T04:54:30;-3.60;99.90
21387;DHT22;10854;45.922;6.716;2023-02-13T04:56:58;-3.60;99.90
21387;DHT22;10854;45.922;6.716;2023-02-13T04:59:41;-3.60;99.90
21387;DHT22;10854;45.922;6.716;2023-02-13T05:02:09;-3.60;99.90
21387;DHT22;10854;45.922;6.716;2023-02-13T05:05:26;-3.70;99.90
21387;DHT22;10854;45.922;6.716;2023-02-13T05:08:01;-3.70;99.90
21387;DHT22;10854;45.922;6.716;2023-02-13T05:10:30;-3.70;99.90
21387;DHT22;10854;45.922;6.716;2023-02-13T05:13:30;-3.80;99.90
21387;DHT22;10854;45.922;6.716;2023-02-13T05:16:45;-3.80;99.90
21387;DHT22;10854;45.922;6.716;2023-02-13T05:19:44;-3.80;99.90
21387;DHT22;10854;45.922;6.716;2023-02-13T05:22:18;-3.80;99.90
21387;DHT22;10854;45.922;6.716;2023-02-13T05:25:08;-3.80;99.90
21387;DHT22;10854;45.922;6.716;2023-02-13T05:27:43;-3.90;99.90
21387;DHT22;10854;45.922;6.716;2023-02-13T05:30:52;-3.90;99.90
21387;DHT22;10854;45.922;6.716;2023-02-13T05:33:24;-3.90;99.90
21387;DHT22;10854;45.922;6.716;2023-02-13T05:36:09;-3.90;99.90
21387;DHT22;10854;45.922;6.716;2023-02-13T05:39:01;-3.80;99.90
21387;DHT22;10854;45.922;6.716;2023-02-13T05:41:49;-3.90;99.90
21387;DHT22;10854;45.922;6.716;2023-02-13T05:44:38;-3.90;99.90
21387;DHT22;10854;45.922;6.716;2023-02-13T05:47:10;-3.80;99.90
21387;DHT22;10854;45.922;6.716;2023-02-13T05:50:01;-3.90;99.90
21387;DHT22;10854;45.922;6.716;2023-02-13T05:52:32;-3.90;99.90
21387;DHT22;10854;45.922;6.716;2023-02-13T05:55:01;-3.90;99.90
21387;DHT22;10854;45.922;6.716;2023-02-13T05:57:29;-3.90;99.90
21387;DHT22;10854;45.922;6.716;2023-02-13T06:00:20;-3.90;99.90
21387;DHT22;10854;45.922;6.716;2023-02-13T06:03:21;-3.90;99.90
21387;DHT22;10854;45.922;6.716;2023-02-13T06:06:27;-3.90;99.90
21387;DHT22;10854;45.922;6.716;2023-02-13T06:08:56;-3.90;99.90
21387;DHT22;10854;45.922;6.716;2023-02-13T06:11:30;-3.90;99.90
21387;DHT22;10854;45.922;6.716;2023-02-13T06:14:20;-4.00;99.90
21387;DHT22;10854;45.922;6.716;2023-02-13T06:16:49;-4.00;99.90
21387;DHT22;10854;45.922;6.716;2023-02-13T06:19:39;-3.90;99.90
21387;DHT22;10854;45.922;6.716;2023-02-13T06:22:10;-4.00;99.90
21387;DHT22;10854;45.922;6.716;2023-02-13T06:24:43;-4.00;99.90
21387;DHT22;10854;45.922;6.716;2023-02-13T06:27:20;-3.90;99.90
21387;DHT22;10854;45.922;6.716;2023-02-13T06:30:07;-3.90;99.90
21387;DHT22;10854;45.922;6.716;2023-02-13T06:32:36;-3.90;99.90
21387;DHT22;10854;45.922;6.716;2023-02-13T06:36:10;-3.90;99.90
21387;DHT22;10854;45.922;6.716;2023-02-13T06:39:18;-3.90;99.90
21387;DHT22;10854;45.922;6.716;2023-02-13T06:42:13;-4.00;99.90
21387;DHT22;10854;45.922;6.716;2023-02-13T06:45:08;-4.00;99.90
21387;DHT22;10854;45.922;6.716;2023-02-13T06:48:23;-4.00;99.90
21387;DHT22;10854;45.922;6.716;2023-02-13T06:50:59;-4.00;99.90
21387;DHT22;10854;45.922;6.716;2023-02-13T06:54:06;-4.00;99.90
21387;DHT22;10854;45.922;6.716;2023-02-13T06:56:38;-4.00;99.90
21387;DHT22;10854;45.922;6.716;2023-02-13T06:59:37;-4.00;99.90
21387;DHT22;10854;45.922;6.716;2023-02-13T07:03:02;-4.00;99.90
21387;DHT22;10854;45.922;6.716;2023-02-13T07:05:44;-4.00;99.90
21387;DHT22;10854;45.922;6.716;2023-02-13T07:08:14;-4.00;99.90
21387;DHT22;10854;45.922;6.716;2023-02-13T07:11:26;-3.90;99.90
21387;DHT22;10854;45.922;6.716;2023-02-13T07:14:06;-3.90;99.90
21387;DHT22;10854;45.922;6.716;2023-02-13T07:17:02;-3.90;99.90
21387;DHT22;10854;45.922;6.716;2023-02-13T07:19:36;-3.90;99.90
21387;DHT22;10854;45.922;6.716;2023-02-13T07:22:25;-3.80;99.90
21387;DHT22;10854;45.922;6.716;2023-02-13T07:25:42;-3.80;99.90
21387;DHT22;10854;45.922;6.716;2023-02-13T07:28:52;-3.70;99.90
21387;DHT22;10854;45.922;6.716;2023-02-13T07:31:42;-3.70;99.90
21387;DHT22;10854;45.922;6.716;2023-02-13T07:34:16;-3.60;99.90
21387;DHT22;10854;45.922;6.716;2023-02-13T07:36:47;-3.60;99.90
21387;DHT22;10854;45.922;6.716;2023-02-13T07:39:24;-3.50;99.90
21387;DHT22;10854;45.922;6.716;2023-02-13T07:42:22;-3.50;99.90
21387;DHT22;10854;45.922;6.716;2023-02-13T07:45:12;-3.40;99.90
21387;DHT22;10854;45.922;6.716;2023-02-13T07:48:10;-3.30;99.90
21387;DHT22;10854;45.922;6.716;2023-02-13T07:51:04;-3.30;99.90
21387;DHT22;10854;45.922;6.716;2023-02-13T07:53:53;-3.30;99.90
21387;DHT22;10854;45.922;6.716;2023-02-13T07:56:31;-3.20;99.90
21387;DHT22;10854;45.922;6.716;2023-02-13T08:00:03;-3.10;99.90
21387;DHT22;10854;45.922;6.716;2023-02-13T08:03:16;-3.00;99.90
21387;DHT22;10854;45.922;6.716;2023-02-13T08:06:14;-3.00;99.90
21387;DHT22;10854;45.922;6.716;2023-02-13T08:08:42;-2.90;99.90
21387;DHT22;10854;45.922;6.716;2023-02-13T08:11:38;-2.90;99.90
21387;DHT22;10854;45.922;6.716;2023-02-13T08:15:25;-2.90;99.90
21387;DHT22;10854;45.922;6.716;2023-02-13T08:18:35;-2.80;99.90
21387;DHT22;10854;45.922;6.716;2023-02-13T08:21:13;-2.80;99.90
21387;DHT22;10854;45.922;6.716;2023-02-13T08:24:14;-2.70;99.90
21387;DHT22;10854;45.922;6.716;2023-02-13T08:27:32;-2.70;99.90
21387;DHT22;10854;45.922;6.716;2023-02-13T08:30:14;-2.60;99.90
21387;DHT22;10854;45.922;6.716;2023-02-13T08:33:15;-2.60;99.90
21387;DHT22;10854;45.922;6.716;2023-02-13T08:35:51;-2.50;99.90
21387;DHT22;10854;45.922;6.716;2023-02-13T08:38:45;-2.50;99.90
21387;DHT22;10854;45.922;6.716;2023-02-13T08:42:05;-2.40;99.90
21387;DHT22;10854;45.922;6.716;2023-02-13T08:44:42;-2.30;99.90
21387;DHT22;10854;45.922;6.716;2023-02-13T08:48:00;-2.30;99.90
21387;DHT22;10854;45.922;6.716;2023-02-13T08:51:08;-2.20;99.90
21387;DHT22;10854;45.922;6.716;2023-02-13T08:54:01;-2.20;99.90
21387;DHT22;10854;45.922;6.716;2023-02-13T08:56:53;-2.10;99.90
21387;DHT22;10854;45.922;6.716;2023-02-13T09:00:10;-2.00;99.90
21387;DHT22;10854;45.922;6.716;2023-02-13T09:03:39;-1.00;99.90
21387;DHT22;10854;45.922;6.716;2023-02-13T09:06:30;0.40;99.90
21387;DHT22;10854;45.922;6.716;2023-02-13T09:08:59;1.80;99.90
21387;DHT22;10854;45.922;6.716;2023-02-13T09:11:37;3.00;99.90
21387;DHT22;10854;45.922;6.716;2023-02-13T09:14:06;4.40;99.90
21387;DHT22;10854;45.922;6.716;2023-02-13T09:16:35;5.50;99.90
21387;DHT22;10854;45.922;6.716;2023-02-13T09:19:03;6.20;95.80
21387;DHT22;10854;45.922;6.716;2023-02-13T09:21:32;6.70;91.20
21387;DHT22;10854;45.922;6.716;2023-02-13T09:24:00;7.10;88.40
21387;DHT22;10854;45.922;6.716;2023-02-13T09:26:29;7.60;85.70
21387;DHT22;10854;45.922;6.716;2023-02-13T09:28:58;7.90;84.20
21387;DHT22;10854;45.922;6.716;2023-02-13T09:31:26;8.40;82.20
21387;DHT22;10854;45.922;6.716;2023-02-13T09:33:56;8.90;80.80
21387;DHT22;10854;45.922;6.716;2023-02-13T09:36:24;9.50;78.60
21387;DHT22;10854;45.922;6.716;2023-02-13T09:38:55;10.00;74.60
21387;DHT22;10854;45.922;6.716;2023-02-13T09:41:35;10.70;73.40
21387;DHT22;10854;45.922;6.716;2023-02-13T09:44:15;11.30;68.80
21387;DHT22;10854;45.922;6.716;2023-02-13T09:49:55;12.00;62.90
21387;DHT22;10854;45.922;6.716;2023-02-13T09:52:26;12.30;60.90
21387;DHT22;10854;45.922;6.716;2023-02-13T09:54:55;12.60;60.00
21387;DHT22;10854;45.922;6.716;2023-02-13T09:57:33;12.80;59.10
21387;DHT22;10854;45.922;6.716;2023-02-13T10:00:24;13.20;58.90
21387;DHT22;10854;45.922;6.716;2023-02-13T10:11:09;14.80;54.40
21387;DHT22;10854;45.922;6.716;2023-02-13T10:16:31;14.80;53.20
21387;DHT22;10854;45.922;6.716;2023-02-13T10:19:44;14.80;52.50
21387;DHT22;10854;45.922;6.716;2023-02-13T10:25:00;14.80;53.10
21387;DHT22;10854;45.922;6.716;2023-02-13T10:27:35;15.00;51.80
21387;DHT22;10854;45.922;6.716;2023-02-13T10:30:17;15.00;51.90
21387;DHT22;10854;45.922;6.716;2023-02-13T10:32:58;15.10;50.70
21387;DHT22;10854;45.922;6.716;2023-02-13T10:38:22;15.90;51.20
21387;DHT22;10854;45.922;6.716;2023-02-13T10:41:05;16.30;50.10
21387;DHT22;10854;45.922;6.716;2023-02-13T10:46:42;16.70;49.10
21387;DHT22;10854;45.922;6.716;2023-02-13T10:49:34;16.90;48.20
21387;DHT22;10854;45.922;6.716;2023-02-13T10:55:14;17.00;47.20
21387;DHT22;10854;45.922;6.716;2023-02-13T10:58:01;17.10;47.40
21387;DHT22;10854;45.922;6.716;2023-02-13T11:03:22;17.70;46.60
21387;DHT22;10854;45.922;6.716;2023-02-13T11:05:54;18.00;45.90
21387;DHT22;10854;45.922;6.716;2023-02-13T11:08:37;18.00;43.80
21387;DHT22;10854;45.922;6.716;2023-02-13T11:11:34;17.60;43.60
21387;DHT22;10854;45.922;6.716;2023-02-13T11:14:17;17.60;44.40
21387;DHT22;10854;45.922;6.716;2023-02-13T11:16:50;17.90;45.00
21387;DHT22;10854;45.922;6.716;2023-02-13T11:22:04;18.60;44.60
21387;DHT22;10854;45.922;6.716;2023-02-13T11:24:35;19.00;44.50
21387;DHT22;10854;45.922;6.716;2023-02-13T11:27:10;19.50;44.20
21387;DHT22;10854;45.922;6.716;2023-02-13T11:29:53;19.90;43.00
21387;DHT22;10854;45.922;6.716;2023-02-13T11:32:30;19.90;41.60
21387;DHT22;10854;45.922;6.716;2023-02-13T11:35:27;19.70;40.00
21387;DHT22;10854;45.922;6.716;2023-02-13T11:38:23;19.20;40.30
21387;DHT22;10854;45.922;6.716;2023-02-13T11:41:13;19.10;41.00
21387;DHT22;10854;45.922;6.716;2023-02-13T11:43:52;19.00;40.50
21387;DHT22;10854;45.922;6.716;2023-02-13T11:46:30;19.00;41.80
21387;DHT22;10854;45.922;6.716;2023-02-13T11:49:32;18.90;40.40
21387;DHT22;10854;45.922;6.716;2023-02-13T11:52:03;18.90;40.70
21387;DHT22;10854;45.922;6.716;2023-02-13T11:54:43;18.90;40.20
21387;DHT22;10854;45.922;6.716;2023-02-13T11:57:33;18.80;40.30
21387;DHT22;10854;45.922;6.716;2023-02-13T12:00:26;19.10;39.80
21387;DHT22;10854;45.922;6.716;2023-02-13T12:02:55;19.20;40.00
21387;DHT22;10854;45.922;6.716;2023-02-13T12:05:26;19.30;40.00
21387;DHT22;10854;45.922;6.716;2023-02-13T12:07:59;19.40;39.40
21387;DHT22;10854;45.922;6.716;2023-02-13T12:10:31;19.50;39.20
21387;DHT22;10854;45.922;6.716;2023-02-13T12:16:34;20.10;40.10
21387;DHT22;10854;45.922;6.716;2023-02-13T12:19:11;20.50;37.90
21387;DHT22;10854;45.922;6.716;2023-02-13T12:27:43;20.70;39.40
21387;DHT22;10854;45.922;6.716;2023-02-13T12:42:11;21.20;36.70
21387;DHT22;10854;45.922;6.716;2023-02-13T12:47:33;21.30;34.70
21387;DHT22;10854;45.922;6.716;2023-02-13T13:01:47;20.60;36.40
21387;DHT22;10854;45.922;6.716;2023-02-13T13:10:17;21.50;36.00
21387;DHT22;10854;45.922;6.716;2023-02-13T13:13:02;21.90;35.40
21387;DHT22;10854;45.922;6.716;2023-02-13T13:15:51;22.20;35.50
21387;DHT22;10854;45.922;6.716;2023-02-13T13:23:54;23.00;34.40
21387;DHT22;10854;45.922;6.716;2023-02-13T13:26:39;23.10;34.00
21387;DHT22;10854;45.922;6.716;2023-02-13T13:29:41;23.30;34.00
21387;DHT22;10854;45.922;6.716;2023-02-13T13:32:26;23.40;33.50
21387;DHT22;10854;45.922;6.716;2023-02-13T13:34:57;23.20;33.40
21387;DHT22;10854;45.922;6.716;2023-02-13T13:37:43;23.10;33.60
21387;DHT22;10854;45.922;6.716;2023-02-13T13:40:29;22.90;33.20
21387;DHT22;10854;45.922;6.716;2023-02-13T13:46:02;22.80;33.60
21387;DHT22;10854;45.922;6.716;2023-02-13T13:51:39;22.40;34.00
21387;DHT22;10854;45.922;6.716;2023-02-13T14:05:14;22.40;34.00
21387;DHT22;10854;45.922;6.716;2023-02-13T14:07:53;22.20;34.70
21387;DHT22;10854;45.922;6.716;2023-02-13T14:13:34;22.40;35.40
21387;DHT22;10854;45.922;6.716;2023-02-13T14:16:43;22.80;35.00
21387;DHT22;10854;45.922;6.716;2023-02-13T14:19:31;23.00;34.40
21387;DHT22;10854;45.922;6.716;2023-02-13T14:22:32;23.00;34.40
21387;DHT22;10854;45.922;6.716;2023-02-13T14:25:41;23.10;34.50
21387;DHT22;10854;45.922;6.716;2023-02-13T14:28:30;22.90;33.80
21387;DHT22;10854;45.922;6.716;2023-02-13T14:31:42;22.70;34.20
21387;DHT22;10854;45.922;6.716;2023-02-13T14:34:22;22.50;33.50
21387;DHT22;10854;45.922;6.716;2023-02-13T14:37:36;22.40;33.90
21387;DHT22;10854;45.922;6.716;2023-02-13T14:40:30;22.40;33.40
21387;DHT22;10854;45.922;6.716;2023-02-13T14:46:34;22.10;33.30
21387;DHT22;10854;45.922;6.716;2023-02-13T14:49:27;22.00;32.30
21387;DHT22;10854;45.922;6.716;2023-02-13T14:52:02;21.60;32.70
21387;DHT22;10854;45.922;6.716;2023-02-13T14:55:06;21.50;33.30
21387;DHT22;10854;45.922;6.716;2023-02-13T14:58:07;21.60;33.30
21387;DHT22;10854;45.922;6.716;2023-02-13T15:00:45;21.60;33.30
21387;DHT22;10854;45.922;6.716;2023-02-13T15:03:28;21.40;33.50
21387;DHT22;10854;45.922;6.716;2023-02-13T15:06:25;21.10;33.90
21387;DHT22;10854;45.922;6.716;2023-02-13T15:09:02;20.90;33.90
21387;DHT22;10854;45.922;6.716;2023-02-13T15:11:56;20.70;34.20
21387;DHT22;10854;45.922;6.716;2023-02-13T15:14:42;20.40;34.80
21387;DHT22;10854;45.922;6.716;2023-02-13T15:17:16;20.30;35.00
21387;DHT22;10854;45.922;6.716;2023-02-13T15:20:23;20.40;35.10
21387;DHT22;10854;45.922;6.716;2023-02-13T15:23:39;20.30;35.00
21387;DHT22;10854;45.922;6.716;2023-02-13T15:26:23;20.20;34.80
21387;DHT22;10854;45.922;6.716;2023-02-13T15:29:21;20.20;35.10
21387;DHT22;10854;45.922;6.716;2023-02-13T15:32:26;20.10;35.40
21387;DHT22;10854;45.922;6.716;2023-02-13T15:34:55;19.90;35.80
21387;DHT22;10854;45.922;6.716;2023-02-13T15:37:30;19.70;36.20
21387;DHT22;10854;45.922;6.716;2023-02-13T15:40:31;19.60;36.70
21387;DHT22;10854;45.922;6.716;2023-02-13T15:43:37;19.50;37.10
21387;DHT22;10854;45.922;6.716;2023-02-13T15:49:15;19.40;37.70
21387;DHT22;10854;45.922;6.716;2023-02-13T15:51:46;19.20;38.00
21387;DHT22;10854;45.922;6.716;2023-02-13T15:54:27;19.00;38.40
21387;DHT22;10854;45.922;6.716;2023-02-13T15:57:04;18.70;38.50
21387;DHT22;10854;45.922;6.716;2023-02-13T15:59:37;18.00;39.10
21387;DHT22;10854;45.922;6.716;2023-02-13T16:02:40;17.00;40.00
21387;DHT22;10854;45.922;6.716;2023-02-13T16:05:13;15.90;41.50
21387;DHT22;10854;45.922;6.716;2023-02-13T16:07:52;15.00;42.50
21387;DHT22;10854;45.922;6.716;2023-02-13T16:10:29;14.10;43.80
21387;DHT22;10854;45.922;6.716;2023-02-13T16:13:17;13.50;44.90
21387;DHT22;10854;45.922;6.716;2023-02-13T16:15:49;12.90;45.70
21387;DHT22;10854;45.922;6.716;2023-02-13T16:18:20;12.50;46.40
21387;DHT22;10854;45.922;6.716;2023-02-13T16:20:53;12.10;46.90
21387;DHT22;10854;45.922;6.716;2023-02-13T16:23:23;11.80;47.60
21387;DHT22;10854;45.922;6.716;2023-02-13T16:25:52;11.40;48.10
21387;DHT22;10854;45.922;6.716;2023-02-13T16:28:29;11.10;48.70
21387;DHT22;10854;45.922;6.716;2023-02-13T16:31:01;10.80;49.20
21387;DHT22;10854;45.922;6.716;2023-02-13T16:33:40;10.60;49.90
21387;DHT22;10854;45.922;6.716;2023-02-13T16:43:54;9.60;53.00
21387;DHT22;10854;45.922;6.716;2023-02-13T16:46:34;9.40;53.50
21387;DHT22;10854;45.922;6.716;2023-02-13T16:51:50;8.80;55.40
21387;DHT22;10854;45.922;6.716;2023-02-13T16:54:29;8.60;55.40
21387;DHT22;10854;45.922;6.716;2023-02-13T17:02:23;7.70;57.70
21387;DHT22;10854;45.922;6.716;2023-02-13T17:05:34;7.50;58.40
21387;DHT22;10854;45.922;6.716;2023-02-13T17:07:47;7.30;59.10
21387;DHT22;10854;45.922;6.716;2023-02-13T17:15:42;6.70;61.10
21387;DHT22;10854;45.922;6.716;2023-02-13T17:18:11;6.50;61.50
21387;DHT22;10854;45.922;6.716;2023-02-13T17:20:41;6.30;62.20
21387;DHT22;10854;45.922;6.716;2023-02-13T17:23:24;6.10;63.10
21387;DHT22;10854;45.922;6.716;2023-02-13T17:25:53;6.00;63.90
21387;DHT22;10854;45.922;6.716;2023-02-13T17:28:25;5.80;64.30
21387;DHT22;10854;45.922;6.716;2023-02-13T17:30:57;5.60;64.90
21387;DHT22;10854;45.922;6.716;2023-02-13T17:33:29;5.40;65.50
21387;DHT22;10854;45.922;6.716;2023-02-13T17:35:58;5.30;66.10
21387;DHT22;10854;45.922;6.716;2023-02-13T17:38:29;5.10;66.70
21387;DHT22;10854;45.922;6.716;2023-02-13T17:40:57;5.00;68.00
21387;DHT22;10854;45.922;6.716;2023-02-13T17:43:26;4.90;67.50
21387;DHT22;10854;45.922;6.716;2023-02-13T17:45:54;4.70;67.90
21387;DHT22;10854;45.922;6.716;2023-02-13T17:48:24;4.50;68.30
21387;DHT22;10854;45.922;6.716;2023-02-13T17:50:52;4.40;69.10
21387;DHT22;10854;45.922;6.716;2023-02-13T17:53:28;4.30;69.80
21387;DHT22;10854;45.922;6.716;2023-02-13T17:55:58;4.20;70.50
21387;DHT22;10854;45.922;6.716;2023-02-13T17:58:27;4.10;70.80
21387;DHT22;10854;45.922;6.716;2023-02-13T18:00:55;4.00;70.90
21387;DHT22;10854;45.922;6.716;2023-02-13T18:03:24;3.90;71.40
21387;DHT22;10854;45.922;6.716;2023-02-13T18:05:52;3.80;71.70
21387;DHT22;10854;45.922;6.716;2023-02-13T18:08:21;3.70;72.10
21387;DHT22;10854;45.922;6.716;2023-02-13T18:10:49;3.60;72.40
21387;DHT22;10854;45.922;6.716;2023-02-13T18:13:18;3.40;72.80
21387;DHT22;10854;45.922;6.716;2023-02-13T18:15:46;3.30;73.20
21387;DHT22;10854;45.922;6.716;2023-02-13T18:18:15;3.20;73.10
21387;DHT22;10854;45.922;6.716;2023-02-13T18:20:44;3.10;73.70
21387;DHT22;10854;45.922;6.716;2023-02-13T18:23:14;3.00;74.20
21387;DHT22;10854;45.922;6.716;2023-02-13T18:25:43;2.90;74.70
21387;DHT22;10854;45.922;6.716;2023-02-13T18:28:11;2.80;75.00
21387;DHT22;10854;45.922;6.716;2023-02-13T18:30:42;2.70;75.60
21387;DHT22;10854;45.922;6.716;2023-02-13T18:33:11;2.70;75.70
21387;DHT22;10854;45.922;6.716;2023-02-13T18:35:40;2.60;76.10
21387;DHT22;10854;45.922;6.716;2023-02-13T18:38:09;2.60;76.50
21387;DHT22;10854;45.922;6.716;2023-02-13T18:40:38;2.50;76.50
21387;DHT22;10854;45.922;6.716;2023-02-13T18:43:06;2.40;76.70
21387;DHT22;10854;45.922;6.716;2023-02-13T18:45:35;2.30;76.90
21387;DHT22;10854;45.922;6.716;2023-02-13T18:48:04;2.20;77.30
21387;DHT22;10854;45.922;6.716;2023-02-13T18:50:38;2.20;77.60
21387;DHT22;10854;45.922;6.716;2023-02-13T18:53:09;2.10;78.00
21387;DHT22;10854;45.922;6.716;2023-02-13T18:55:37;2.00;78.10
21387;DHT22;10854;45.922;6.716;2023-02-13T18:58:07;2.00;78.60
21387;DHT22;10854;45.922;6.716;2023-02-13T19:00:35;1.90;78.90
21387;DHT22;10854;45.922;6.716;2023-02-13T19:03:04;1.90;79.20
21387;DHT22;10854;45.922;6.716;2023-02-13T19:05:32;1.90;79.40
21387;DHT22;10854;45.922;6.716;2023-02-13T19:08:01;1.90;79.60
21387;DHT22;10854;45.922;6.716;2023-02-13T19:10:32;1.80;79.80
21387;DHT22;10854;45.922;6.716;2023-02-13T19:13:01;1.80;80.20
21387;DHT22;10854;45.922;6.716;2023-02-13T19:15:30;1.70;80.20
21387;DHT22;10854;45.922;6.716;2023-02-13T19:17:58;1.70;80.50
21387;DHT22;10854;45.922;6.716;2023-02-13T19:20:26;1.60;80.80
21387;DHT22;10854;45.922;6.716;2023-02-13T19:22:55;1.60;81.10
21387;DHT22;10854;45.922;6.716;2023-02-13T19:25:23;1.60;81.70
21387;DHT22;10854;45.922;6.716;2023-02-13T19:27:52;1.50;82.10
21387;DHT22;10854;45.922;6.716;2023-02-13T19:30:20;1.50;82.50
21387;DHT22;10854;45.922;6.716;2023-02-13T19:32:49;1.50;82.90
21387;DHT22;10854;45.922;6.716;2023-02-13T19:35:17;1.40;83.70
21387;DHT22;10854;45.922;6.716;2023-02-13T19:37:46;1.40;84.40
21387;DHT22;10854;45.922;6.716;2023-02-13T19:40:14;1.40;85.00
21387;DHT22;10854;45.922;6.716;2023-02-13T19:42:43;1.30;85.30
21387;DHT22;10854;45.922;6.716;2023-02-13T19:45:12;1.30;85.90
21387;DHT22;10854;45.922;6.716;2023-02-13T19:47:42;1.30;86.10
21387;DHT22;10854;45.922;6.716;2023-02-13T19:50:10;1.20;86.50
21387;DHT22;10854;45.922;6.716;2023-02-13T19:52:39;1.20;86.80
21387;DHT22;10854;45.922;6.716;2023-02-13T19:55:08;1.10;87.20
21387;DHT22;10854;45.922;6.716;2023-02-13T19:57:36;1.00;87.80
21387;DHT22;10854;45.922;6.716;2023-02-13T20:00:07;0.90;88.40
21387;DHT22;10854;45.922;6.716;2023-02-13T20:02:38;0.90;89.70
21387;DHT22;10854;45.922;6.716;2023-02-13T20:05:12;0.80;90.20
21387;DHT22;10854;45.922;6.716;2023-02-13T20:07:47;0.80;90.60
21387;DHT22;10854;45.922;6.716;2023-02-13T20:10:16;0.80;91.10
21387;DHT22;10854;45.922;6.716;2023-02-13T20:12:45;0.80;91.60
21387;DHT22;10854;45.922;6.716;2023-02-13T20:15:13;0.80;92.20
21387;DHT22;10854;45.922;6.716;2023-02-13T20:17:41;0.80;92.90
21387;DHT22;10854;45.922;6.716;2023-02-13T20:20:11;0.90;93.50
21387;DHT22;10854;45.922;6.716;2023-02-13T20:22:44;0.90;94.40
21387;DHT22;10854;45.922;6.716;2023-02-13T20:25:16;1.00;94.30
21387;DHT22;10854;45.922;6.716;2023-02-13T20:27:45;0.90;94.20